Time;durP1;ratioP1;P1;durP2;ratioP2;P2;SDS_P1;SDS_P2;PMS_P1;PMS_P2;Temp;Humidity;BMP_temperature;BMP_pressure;BME280_temperature;BME280_humidity;BME280_pressure;Samples;Min_cycle;Max_cycle;Signal;HPM_P1;HPM_P2
2022/05/20 00:02:01;;;;;;;15.53;10.23;;;16.40;99.90;;;;;;5073864;28;20186;-42
2022/05/20 00:04:26;;;;;;;14.03;11.17;;;16.40;99.90;;;;;;5073970;28;20211;-40
2022/05/20 00:06:52;;;;;;;16.67;11.60;;;16.40;99.90;;;;;;5055555;28;20179;-41
2022/05/20 00:09:18;;;;;;;15.20;11.40;;;16.30;99.90;;;;;;5073853;28;20595;-40
2022/05/20 00:11:43;;;;;;;15.57;11.40;;;16.40;99.90;;;;;;5073841;28;20171;-41
2022/05/20 00:14:09;;;;;;;16.50;10.23;;;16.30;99.90;;;;;;5073526;28;20179;-41
2022/05/20 00:16:35;;;;;;;16.23;11.43;;;16.30;99.90;;;;;;5074826;28;20248;-41
2022/05/20 00:19:03;;;;;;;13.83;9.97;;;16.20;99.90;;;;;;5073335;28;20261;-40
2022/05/20 00:21:29;;;;;;;13.70;9.57;;;16.20;99.90;;;;;;5073138;28;20180;-38
2022/05/20 00:23:55;;;;;;;13.77;9.80;;;16.30;99.90;;;;;;5073517;28;20182;-42
2022/05/20 00:26:20;;;;;;;12.77;10.13;;;16.30;99.90;;;;;;5073518;28;20175;-42
2022/05/20 00:28:48;;;;;;;16.80;10.90;;;16.30;99.90;;;;;;5073212;28;20191;-41
2022/05/20 00:31:17;;;;;;;12.53;10.10;;;16.20;99.90;;;;;;5073576;28;20171;-41
2022/05/20 00:33:43;;;;;;;17.70;11.07;;;16.20;99.90;;;;;;5074080;28;20183;-40
2022/05/20 00:36:08;;;;;;;16.93;10.40;;;16.20;99.90;;;;;;5073319;28;20180;-41
2022/05/20 00:38:35;;;;;;;14.90;10.50;;;16.20;99.90;;;;;;5073338;28;20211;-40
2022/05/20 00:41:01;;;;;;;15.47;10.67;;;16.20;99.90;;;;;;5073192;28;20172;-40
2022/05/20 00:43:29;;;;;;;17.77;10.87;;;16.20;99.90;;;;;;5073465;28;20179;-41
2022/05/20 00:46:00;;;;;;;13.90;10.00;;;16.20;99.90;;;;;;5073237;28;20168;-41
2022/05/20 00:48:28;;;;;;;14.10;9.80;;;16.30;99.90;;;;;;5073311;28;20678;-41
2022/05/20 00:51:16;;;;;;;14.27;9.87;;;16.30;99.90;;;;;;5073356;28;20184;-40
2022/05/20 00:53:50;;;;;;;13.40;10.17;;;16.30;99.90;;;;;;5073030;28;20202;-38
2022/05/20 00:56:26;;;;;;;16.67;11.47;;;16.30;99.90;;;;;;5073055;28;20176;-42
2022/05/20 00:58:53;;;;;;;16.47;12.40;;;16.30;99.90;;;;;;5073091;28;20298;-41
2022/05/20 01:01:20;;;;;;;15.90;12.53;;;16.30;99.90;;;;;;5073261;28;20172;-42
2022/05/20 01:03:47;;;;;;;21.57;14.17;;;16.30;99.90;;;;;;5073216;28;20187;-39
2022/05/20 01:06:13;;;;;;;21.47;12.77;;;16.20;99.90;;;;;;5073292;28;20187;-39
2022/05/20 01:08:40;;;;;;;20.53;12.70;;;16.20;99.90;;;;;;5072864;28;20191;-40
2022/05/20 01:11:06;;;;;;;18.23;13.87;;;16.20;99.90;;;;;;5073062;28;20194;-41
2022/05/20 01:13:33;;;;;;;21.90;14.43;;;16.10;99.90;;;;;;5072887;28;20180;-39
2022/05/20 01:16:02;;;;;;;21.33;14.63;;;16.10;99.90;;;;;;5072800;28;20180;-41
2022/05/20 01:18:31;;;;;;;21.63;15.07;;;16.00;99.90;;;;;;5072416;28;20369;-42
2022/05/20 01:20:57;;;;;;;19.10;14.43;;;15.90;99.90;;;;;;5073101;28;20222;-41
2022/05/20 01:23:26;;;;;;;18.93;14.20;;;15.90;99.90;;;;;;5073237;28;20203;-40
2022/05/20 01:25:54;;;;;;;19.90;14.37;;;15.80;99.90;;;;;;5072663;28;20214;-40
2022/05/20 01:28:22;;;;;;;18.77;14.60;;;15.80;99.90;;;;;;5072715;28;20195;-40
2022/05/20 01:31:00;;;;;;;19.77;13.43;;;15.80;99.90;;;;;;5072511;28;20180;-40
2022/05/20 01:33:30;;;;;;;18.53;13.07;;;15.70;99.90;;;;;;5076053;28;20190;-42
2022/05/20 01:35:55;;;;;;;17.03;12.77;;;15.70;99.90;;;;;;5076538;28;20191;-41
2022/05/20 01:38:21;;;;;;;19.73;14.33;;;15.70;99.90;;;;;;5076316;28;20215;-42
2022/05/20 01:40:52;;;;;;;18.20;13.70;;;15.60;99.90;;;;;;5076274;28;20184;-39
2022/05/20 01:43:17;;;;;;;24.10;15.57;;;15.50;99.90;;;;;;5076422;28;20183;-40
2022/05/20 01:45:50;;;;;;;16.33;13.93;;;15.50;99.90;;;;;;5076187;28;20544;-41
2022/05/20 01:48:35;;;;;;;19.47;15.27;;;15.50;99.90;;;;;;5076329;28;20257;-40
2022/05/20 01:51:04;;;;;;;19.77;14.23;;;15.40;99.90;;;;;;5076059;28;20243;-41
2022/05/20 01:53:41;;;;;;;16.80;13.30;;;15.40;99.90;;;;;;5076020;28;20188;-43
2022/05/20 01:56:18;;;;;;;19.80;14.60;;;15.30;99.90;;;;;;5076252;28;20251;-43
2022/05/20 01:58:58;;;;;;;19.53;14.73;;;15.30;99.90;;;;;;5076425;28;20202;-42
2022/05/20 02:01:43;;;;;;;18.80;13.77;;;15.30;99.90;;;;;;5076199;28;20581;-41
2022/05/20 02:04:21;;;;;;;21.00;15.00;;;15.20;99.90;;;;;;5076098;28;20178;-42
2022/05/20 02:06:54;;;;;;;19.47;14.83;;;15.20;99.90;;;;;;5075945;28;20239;-41
2022/05/20 02:09:29;;;;;;;21.20;15.50;;;15.20;99.90;;;;;;5076046;28;20160;-40
2022/05/20 02:11:56;;;;;;;20.20;15.07;;;15.20;99.90;;;;;;5075673;28;20199;-41
2022/05/20 02:14:45;;;;;;;24.77;16.83;;;15.20;99.90;;;;;;5057754;28;20184;-40
2022/05/20 02:17:35;;;;;;;21.17;15.20;;;15.20;99.90;;;;;;5075835;28;20203;-42
2022/05/20 02:20:06;;;;;;;22.53;16.57;;;15.20;99.90;;;;;;5075471;28;20235;-42
2022/05/20 02:22:36;;;;;;;21.77;16.27;;;15.20;99.90;;;;;;5076229;28;20184;-40
2022/05/20 02:25:05;;;;;;;22.73;16.80;;;15.10;99.90;;;;;;5075731;28;20635;-43
2022/05/20 02:27:39;;;;;;;21.93;16.57;;;15.20;99.90;;;;;;5075370;28;20195;-42
2022/05/20 02:30:14;;;;;;;25.80;18.20;;;15.20;99.90;;;;;;5075976;28;20160;-41
2022/05/20 02:32:49;;;;;;;23.80;17.57;;;15.20;99.90;;;;;;5075656;28;20538;-42
2022/05/20 02:35:15;;;;;;;27.67;18.87;;;15.20;99.90;;;;;;5075691;28;20545;-40
2022/05/20 02:37:41;;;;;;;24.97;17.97;;;15.10;99.90;;;;;;5075277;28;20287;-39
2022/05/20 02:40:09;;;;;;;25.63;17.17;;;15.20;99.90;;;;;;5075626;28;20263;-43
2022/05/20 02:42:35;;;;;;;26.30;17.93;;;15.10;99.90;;;;;;5079556;28;20172;-43
2022/05/20 02:45:01;;;;;;;21.87;15.27;;;15.10;99.90;;;;;;5079656;28;20182;-45
2022/05/20 02:47:32;;;;;;;23.23;17.00;;;15.10;99.90;;;;;;5079676;28;20630;-45
2022/05/20 02:50:04;;;;;;;19.57;14.90;;;15.10;99.90;;;;;;5078751;28;20174;-39
2022/05/20 02:52:29;;;;;;;21.23;15.53;;;15.10;99.90;;;;;;5074882;28;20225;-41
2022/05/20 02:54:55;;;;;;;20.77;15.67;;;15.10;99.90;;;;;;5074862;28;20180;-39
2022/05/20 02:57:21;;;;;;;19.40;15.40;;;15.10;99.90;;;;;;5074637;28;20207;-41
2022/05/20 03:05:19;;;;;;;23.60;16.00;;;15.00;99.90;;;;;;5074706;28;20198;-40
2022/05/20 03:07:44;;;;;;;24.33;16.30;;;15.00;99.90;;;;;;5074610;28;20614;-39
2022/05/20 03:10:11;;;;;;;23.70;17.10;;;15.00;99.90;;;;;;5074585;28;20179;-41
2022/05/20 03:12:36;;;;;;;26.47;17.20;;;15.00;99.90;;;;;;5074751;28;20314;-42
2022/05/20 03:15:08;;;;;;;26.53;19.00;;;15.00;99.90;;;;;;5074468;28;20230;-38
2022/05/20 03:17:33;;;;;;;24.47;18.20;;;15.00;99.90;;;;;;5074380;28;20208;-42
2022/05/20 03:19:59;;;;;;;23.63;17.17;;;15.00;99.90;;;;;;5074247;28;20544;-41
2022/05/20 03:22:25;;;;;;;26.90;18.33;;;15.00;99.90;;;;;;5074816;28;20672;-41
2022/05/20 03:24:50;;;;;;;27.33;19.00;;;15.10;99.90;;;;;;5074211;28;20658;-38
2022/05/20 03:27:19;;;;;;;26.33;19.27;;;15.10;99.90;;;;;;5074188;28;20202;-40
2022/05/20 03:29:46;;;;;;;26.93;18.00;;;15.10;99.90;;;;;;5074168;28;20204;-39
2022/05/20 03:32:12;;;;;;;28.27;19.70;;;15.10;99.90;;;;;;5074224;28;20274;-43
2022/05/20 03:34:40;;;;;;;31.70;20.40;;;15.10;99.90;;;;;;5074255;28;20654;-39
2022/05/20 03:37:06;;;;;;;28.93;20.03;;;15.10;99.90;;;;;;5074231;28;20281;-42
2022/05/20 03:39:32;;;;;;;26.20;19.83;;;15.20;99.90;;;;;;5074231;28;20222;-41
2022/05/20 03:41:58;;;;;;;30.43;20.40;;;15.20;99.90;;;;;;5073928;28;20176;-40
2022/05/20 03:44:24;;;;;;;28.03;20.70;;;15.20;99.90;;;;;;5073868;28;20171;-41
2022/05/20 03:46:53;;;;;;;30.27;20.57;;;15.20;99.90;;;;;;5073720;28;20183;-40
2022/05/20 03:49:21;;;;;;;28.40;20.40;;;15.20;99.90;;;;;;5073914;28;20180;-41
2022/05/20 03:51:49;;;;;;;27.90;19.00;;;15.20;99.90;;;;;;5073859;28;20584;-40
2022/05/20 03:54:17;;;;;;;31.27;20.77;;;15.20;99.90;;;;;;5073697;28;20205;-40
2022/05/20 03:56:43;;;;;;;29.83;19.33;;;15.30;99.90;;;;;;5072708;28;20172;-39
2022/05/20 03:59:09;;;;;;;31.60;20.60;;;15.40;99.90;;;;;;5073493;28;20261;-41
2022/05/20 04:04:21;;;;;;;34.37;19.97;;;15.30;99.90;;;;;;5074130;28;20525;-41
2022/05/20 04:06:47;;;;;;;28.23;19.77;;;15.40;99.90;;;;;;5073315;28;20179;-38
2022/05/20 04:09:12;;;;;;;31.97;21.67;;;15.40;99.90;;;;;;5073521;28;20180;-38
2022/05/20 04:11:38;;;;;;;29.37;20.83;;;15.40;99.90;;;;;;5073997;28;20257;-44
2022/05/20 04:14:05;;;;;;;29.00;21.27;;;15.40;99.90;;;;;;5073436;28;20179;-44
2022/05/20 04:16:30;;;;;;;27.30;20.43;;;15.40;99.90;;;;;;5073342;28;20186;-45
2022/05/20 04:18:56;;;;;;;28.07;19.03;;;15.50;99.90;;;;;;5073092;28;20207;-45
2022/05/20 04:21:22;;;;;;;31.90;20.93;;;15.50;99.90;;;;;;5073631;28;20183;-47
2022/05/20 04:23:48;;;;;;;26.43;19.10;;;15.50;99.90;;;;;;5073436;28;20180;-45
2022/05/20 04:26:14;;;;;;;32.17;19.70;;;15.50;99.90;;;;;;5073309;28;20700;-46
2022/05/20 04:28:40;;;;;;;36.77;20.77;;;15.50;99.90;;;;;;5073443;28;20229;-43
2022/05/20 04:31:08;;;;;;;28.47;19.03;;;15.60;99.90;;;;;;5073157;28;20581;-45
2022/05/20 04:33:34;;;;;;;34.13;21.90;;;15.60;99.90;;;;;;5073522;28;20255;-47
2022/05/20 04:36:00;;;;;;;30.60;21.37;;;15.60;99.90;;;;;;5073523;28;20203;-45
2022/05/20 04:38:27;;;;;;;32.47;20.93;;;15.60;99.90;;;;;;5072933;28;20206;-46
2022/05/20 04:49:13;;;;;;;26.30;17.87;;;15.70;99.90;;;;;;5073168;28;20254;-45
2022/05/20 04:51:40;;;;;;;30.13;19.30;;;15.70;99.90;;;;;;5073175;28;20258;-45
2022/05/20 04:56:51;;;;;;;29.67;20.00;;;15.80;99.90;;;;;;5073220;28;20649;-44
2022/05/20 04:59:17;;;;;;;31.30;19.27;;;15.80;99.90;;;;;;5073035;28;20203;-43
2022/05/20 05:01:44;;;;;;;29.83;20.47;;;15.90;99.90;;;;;;5072967;28;20206;-47
2022/05/20 05:04:10;;;;;;;31.93;19.97;;;15.90;99.90;;;;;;5073114;28;20184;-43
2022/05/20 05:06:36;;;;;;;39.53;21.33;;;15.90;99.90;;;;;;5073483;28;20233;-43
2022/05/20 05:09:02;;;;;;;36.53;21.07;;;16.00;99.90;;;;;;5076750;28;20215;-46
2022/05/20 05:11:28;;;;;;;34.00;20.57;;;16.00;99.90;;;;;;5077140;28;20542;-45
2022/05/20 05:13:53;;;;;;;39.43;21.83;;;16.10;99.90;;;;;;5077224;28;20262;-46
2022/05/20 05:16:19;;;;;;;36.50;21.57;;;16.10;99.90;;;;;;5076840;28;20225;-44
2022/05/20 05:18:45;;;;;;;37.33;21.40;;;16.20;99.90;;;;;;5076468;28;20214;-46
2022/05/20 05:21:14;;;;;;;55.33;24.30;;;16.30;99.90;;;;;;5076848;28;20176;-40
2022/05/20 05:23:39;;;;;;;35.73;22.47;;;16.30;99.90;;;;;;5076657;28;20631;-40
2022/05/20 05:26:05;;;;;;;44.00;24.33;;;16.30;99.90;;;;;;5076611;28;20310;-41
2022/05/20 05:28:31;;;;;;;45.30;24.40;;;16.40;99.90;;;;;;5077005;28;20532;-40
2022/05/20 05:30:58;;;;;;;39.47;23.63;;;16.50;99.90;;;;;;5076778;28;20188;-40
2022/05/20 05:33:24;;;;;;;48.37;23.70;;;16.60;99.90;;;;;;5076432;28;20186;-38
2022/05/20 05:35:51;;;;;;;49.67;24.77;;;16.60;99.90;;;;;;5076642;28;20237;-37
2022/05/20 05:38:17;;;;;;;48.87;24.97;;;16.80;99.90;;;;;;5076730;28;20261;-39
2022/05/20 05:40:43;;;;;;;47.00;24.37;;;16.80;99.90;;;;;;5076822;28;20171;-40
2022/05/20 05:43:09;;;;;;;44.60;24.97;;;16.80;99.90;;;;;;5076376;28;20194;-40
2022/05/20 05:45:35;;;;;;;46.50;25.90;;;16.90;99.90;;;;;;5058496;28;20175;-38
2022/05/20 05:48:04;;;;;;;40.83;24.47;;;16.90;99.90;;;;;;5076202;28;20269;-39
2022/05/20 05:50:32;;;;;;;46.90;24.50;;;17.00;99.90;;;;;;5075989;28;20183;-39
2022/05/20 05:53:00;;;;;;;45.17;24.43;;;17.00;99.90;;;;;;5076364;28;20229;-41
2022/05/20 05:55:27;;;;;;;43.63;24.10;;;17.10;99.90;;;;;;5076101;28;20175;-40
2022/05/20 05:57:53;;;;;;;39.63;21.80;;;17.20;99.90;;;;;;5076348;28;20203;-39
2022/05/20 06:00:20;;;;;;;33.57;21.63;;;17.30;99.90;;;;;;5076077;28;20530;-40
2022/05/20 06:02:45;;;;;;;33.17;21.70;;;17.30;99.90;;;;;;5075852;28;20708;-41
2022/05/20 06:05:11;;;;;;;33.17;20.90;;;17.40;99.90;;;;;;5076145;28;20266;-42
2022/05/20 06:07:37;;;;;;;33.07;20.87;;;17.40;99.90;;;;;;5075688;28;20199;-38
2022/05/20 06:10:03;;;;;;;32.87;21.93;;;17.50;99.90;;;;;;5076247;28;20649;-40
2022/05/20 06:12:31;;;;;;;31.80;21.33;;;17.50;99.90;;;;;;5075948;28;20183;-39
2022/05/20 06:14:57;;;;;;;33.93;22.93;;;17.60;99.90;;;;;;5075897;28;20179;-39
2022/05/20 06:17:22;;;;;;;34.60;23.00;;;17.80;99.90;;;;;;5075441;28;20625;-40
2022/05/20 06:19:48;;;;;;;38.03;23.77;;;17.90;99.90;;;;;;5074762;28;20283;-41
2022/05/20 06:22:14;;;;;;;35.20;22.10;;;18.00;99.90;;;;;;5075849;28;20233;-40
2022/05/20 06:24:39;;;;;;;31.87;22.03;;;18.20;99.90;;;;;;5075511;28;20168;-39
2022/05/20 06:27:05;;;;;;;34.27;20.80;;;18.30;99.90;;;;;;5075352;28;20249;-39
2022/05/20 06:29:31;;;;;;;28.00;19.20;;;18.50;99.90;;;;;;5075619;28;20188;-41
2022/05/20 06:31:56;;;;;;;26.67;18.27;;;18.60;99.90;;;;;;5057400;28;20214;-41
2022/05/20 06:34:22;;;;;;;28.73;18.03;;;18.60;99.90;;;;;;5075312;28;20244;-41
2022/05/20 06:39:50;;;;;;;30.93;20.70;;;18.80;99.90;;;;;;5075200;28;20287;-39
2022/05/20 06:42:16;;;;;;;32.37;21.00;;;18.80;99.90;;;;;;5075249;28;20568;-39
2022/05/20 06:44:45;;;;;;;27.13;19.53;;;18.90;99.90;;;;;;5075082;28;20184;-41
2022/05/20 06:47:11;;;;;;;29.27;20.63;;;19.00;99.90;;;;;;5075213;28;20198;-41
2022/05/20 06:49:36;;;;;;;33.10;21.30;;;19.00;99.90;;;;;;5075310;28;20541;-39
2022/05/20 06:52:02;;;;;;;30.93;20.87;;;19.00;99.90;;;;;;5075507;28;20267;-39
2022/05/20 06:54:28;;;;;;;31.60;20.20;;;19.00;99.90;;;;;;5075187;28;20341;-41
2022/05/20 06:56:54;;;;;;;30.87;20.77;;;19.00;99.90;;;;;;5074935;28;20183;-40
2022/05/20 06:59:20;;;;;;;31.53;21.37;;;19.00;99.90;;;;;;5075112;28;20265;-41
2022/05/20 07:01:46;;;;;;;32.60;21.87;;;19.00;99.90;;;;;;5074939;28;20182;-39
2022/05/20 07:04:12;;;;;;;32.60;22.67;;;19.00;99.90;;;;;;5075108;28;20671;-38
2022/05/20 07:06:38;;;;;;;34.10;22.33;;;19.10;99.90;;;;;;5074786;28;20271;-41
2022/05/20 07:09:05;;;;;;;33.17;21.93;;;19.10;99.90;;;;;;5074487;28;20682;-40
2022/05/20 07:11:31;;;;;;;33.50;23.10;;;19.20;99.90;;;;;;5056692;28;20183;-40
2022/05/20 07:13:58;;;;;;;33.13;22.40;;;19.40;99.90;;;;;;5056542;28;20183;-41
2022/05/20 07:16:26;;;;;;;33.10;22.57;;;19.60;99.90;;;;;;5056442;28;20237;-41
2022/05/20 07:18:52;;;;;;;36.53;23.93;;;19.80;99.90;;;;;;5074097;28;20219;-40
2022/05/20 07:21:18;;;;;;;35.87;23.40;;;20.00;99.90;;;;;;5074368;28;20180;-40
2022/05/20 07:23:43;;;;;;;39.23;24.13;;;20.10;99.90;;;;;;5074340;28;20233;-40
2022/05/20 07:26:10;;;;;;;36.00;22.73;;;20.20;99.90;;;;;;5074241;28;20182;-39
2022/05/20 07:28:36;;;;;;;38.10;25.30;;;20.30;99.90;;;;;;5074111;28;20207;-41
2022/05/20 07:31:03;;;;;;;41.87;26.43;;;20.50;99.90;;;;;;5074212;28;20190;-41
2022/05/20 07:33:30;;;;;;;43.53;27.23;;;20.70;99.90;;;;;;5074117;28;20259;-40
2022/05/20 07:35:56;;;;;;;45.23;28.23;;;20.90;99.90;;;;;;5074056;28;20184;-42
2022/05/20 07:38:22;;;;;;;39.80;25.77;;;21.10;99.90;;;;;;5074054;28;20211;-40
2022/05/20 07:40:48;;;;;;;40.50;25.50;;;21.10;99.90;;;;;;5073784;28;20600;-40
2022/05/20 07:43:14;;;;;;;38.87;24.90;;;21.30;99.90;;;;;;5074158;28;20179;-42
2022/05/20 07:45:40;;;;;;;38.27;23.70;;;21.50;99.90;;;;;;5074371;28;20317;-40
2022/05/20 07:48:06;;;;;;;35.00;23.53;;;21.60;99.90;;;;;;5074432;28;20557;-41
2022/05/20 07:50:38;;;;;;;35.33;23.43;;;21.80;99.90;;;;;;5073778;28;20179;-40
2022/05/20 07:53:23;;;;;;;32.67;23.00;;;21.90;99.90;;;;;;5074057;28;20171;-39
2022/05/20 07:56:22;;;;;;;36.20;23.77;;;22.00;99.90;;;;;;5073985;28;20174;-40
2022/05/20 07:58:53;;;;;;;35.77;23.60;;;22.10;99.90;;;;;;5069918;28;20305;-41
2022/05/20 08:01:22;;;;;;;36.53;23.97;;;22.10;99.90;;;;;;5073808;28;20170;-39
2022/05/20 08:06:39;;;;;;;35.00;24.17;;;22.10;99.90;;;;;;5073685;28;20623;-41
2022/05/20 08:09:06;;;;;;;35.07;24.50;;;22.10;99.90;;;;;;5074697;28;20219;-39
2022/05/20 08:11:32;;;;;;;34.10;23.93;;;22.20;99.90;;;;;;5073438;28;20210;-43
2022/05/20 08:13:58;;;;;;;32.83;23.70;;;22.20;99.90;;;;;;5073739;28;20282;-41
2022/05/20 08:16:24;;;;;;;36.53;24.77;;;22.40;99.90;;;;;;5073452;28;20261;-39
2022/05/20 08:18:49;;;;;;;32.13;23.50;;;22.60;99.90;;;;;;5073396;28;20300;-42
2022/05/20 08:21:15;;;;;;;32.00;25.03;;;22.80;99.90;;;;;;5073463;28;20524;-41
2022/05/20 08:23:40;;;;;;;33.47;24.83;;;23.00;99.90;;;;;;5073383;28;20191;-41
2022/05/20 08:26:06;;;;;;;35.27;25.47;;;23.00;99.90;;;;;;5073310;28;20241;-41
2022/05/20 08:28:32;;;;;;;36.57;25.53;;;23.00;99.90;;;;;;5073786;28;20200;-42
2022/05/20 08:30:57;;;;;;;34.77;25.07;;;23.00;99.90;;;;;;5073402;28;20183;-39
2022/05/20 08:33:23;;;;;;;34.27;25.93;;;23.00;99.90;;;;;;5073188;28;20229;-39
2022/05/20 08:35:49;;;;;;;34.63;26.20;;;22.90;99.90;;;;;;5073582;28;20517;-40
2022/05/20 08:38:16;;;;;;;35.00;25.90;;;23.10;99.90;;;;;;5073499;28;20212;-41
2022/05/20 08:40:46;;;;;;;36.17;28.07;;;23.10;99.90;;;;;;5073280;28;20176;-40
2022/05/20 08:43:12;;;;;;;36.07;26.47;;;23.20;99.90;;;;;;5073115;28;20245;-41
2022/05/20 08:45:38;;;;;;;34.83;26.13;;;23.20;99.90;;;;;;5073282;28;20179;-40
2022/05/20 08:48:06;;;;;;;36.07;27.60;;;23.30;99.90;;;;;;5073462;28;20329;-39
2022/05/20 08:50:52;;;;;;;32.43;25.73;;;23.30;99.90;;;;;;5073481;28;20220;-40
2022/05/20 08:53:23;;;;;;;37.50;27.03;;;23.40;99.90;;;;;;5073714;28;20305;-41
2022/05/20 08:55:48;;;;;;;38.63;29.00;;;23.60;99.90;;;;;;5073215;28;20576;-39
2022/05/20 08:58:22;;;;;;;35.77;28.70;;;23.70;99.90;;;;;;5072783;28;20289;-40
2022/05/20 09:00:48;;;;;;;39.37;28.83;;;23.80;99.90;;;;;;5072992;28;20252;-40
2022/05/20 09:03:13;;;;;;;33.97;27.57;;;24.00;99.90;;;;;;5073586;28;20175;-41
2022/05/20 09:05:41;;;;;;;36.80;25.83;;;24.20;99.90;;;;;;5072983;28;20237;-42
2022/05/20 09:08:19;;;;;;;39.30;29.13;;;24.30;99.90;;;;;;5072927;28;20283;-42
2022/05/20 09:10:50;;;;;;;38.23;29.00;;;24.40;99.90;;;;;;5073198;28;20190;-43
2022/05/20 09:13:21;;;;;;;41.63;28.47;;;24.40;99.90;;;;;;5073146;28;20164;-41
2022/05/20 09:16:05;;;;;;;34.03;25.63;;;24.50;99.90;;;;;;5072883;28;20599;-41
2022/05/20 09:18:40;;;;;;;35.07;26.37;;;24.70;99.90;;;;;;5072646;28;20659;-42
2022/05/20 09:21:14;;;;;;;35.07;26.70;;;24.90;99.90;;;;;;5072817;28;20183;-41
2022/05/20 09:23:56;;;;;;;38.73;27.90;;;25.00;99.90;;;;;;5072933;28;20176;-41
2022/05/20 09:26:30;;;;;;;32.23;24.73;;;24.90;99.90;;;;;;5072789;28;20262;-40
2022/05/20 09:29:11;;;;;;;35.30;24.03;;;25.00;99.90;;;;;;5073163;28;20203;-40
2022/05/20 09:32:05;;;;;;;28.63;22.77;;;25.10;99.90;;;;;;5073171;28;20199;-41
2022/05/20 09:34:33;;;;;;;35.57;25.13;;;25.00;99.90;;;;;;5070242;28;20298;-41
2022/05/20 09:37:14;;;;;;;35.07;23.13;;;25.10;99.90;;;;;;5073129;28;20201;-41
2022/05/20 09:39:42;;;;;;;31.80;23.17;;;25.20;99.90;;;;;;5073109;28;20188;-42
2022/05/20 09:42:26;;;;;;;25.83;20.43;;;25.20;99.90;;;;;;5073050;28;20268;-40
2022/05/20 09:45:01;;;;;;;29.30;22.33;;;25.30;99.90;;;;;;5072844;28;20251;-42
2022/05/20 09:47:50;;;;;;;32.40;22.07;;;25.40;99.90;;;;;;5073555;28;20556;-41
2022/05/20 09:50:34;;;;;;;31.37;21.27;;;25.50;99.90;;;;;;5072965;28;20168;-43
2022/05/20 09:53:03;;;;;;;28.90;20.73;;;25.60;99.90;;;;;;5072727;28;20160;-39
2022/05/20 09:55:34;;;;;;;30.47;21.67;;;25.80;99.90;;;;;;5075797;28;20180;-39
2022/05/20 09:58:27;;;;;;;27.77;20.60;;;25.80;99.90;;;;;;5075826;28;20227;-40
2022/05/20 10:00:53;;;;;;;31.03;20.70;;;25.90;99.90;;;;;;5069914;28;20195;-38
2022/05/20 10:03:38;;;;;;;25.50;20.73;;;26.00;99.90;;;;;;5058097;28;20179;-39
2022/05/20 10:06:14;;;;;;;23.70;19.20;;;26.10;99.90;;;;;;5076191;28;20518;-41
2022/05/20 10:09:09;;;;;;;23.70;18.60;;;26.10;99.90;;;;;;5075791;28;20747;-40
2022/05/20 10:11:43;;;;;;;25.00;19.57;;;26.00;99.90;;;;;;5075928;28;20615;-41
2022/05/20 10:14:15;;;;;;;26.07;19.10;;;26.00;99.90;;;;;;5076072;28;20168;-40
2022/05/20 10:16:51;;;;;;;27.07;19.77;;;26.00;99.90;;;;;;5076489;28;20212;-41
2022/05/20 10:20:12;;;;;;;26.80;20.43;;;25.90;99.90;;;;;;5075801;28;20506;-42
2022/05/20 10:22:48;;;;;;;22.40;17.73;;;25.90;99.90;;;;;;5014179;28;20181;-42
2022/05/20 10:25:46;;;;;;;25.30;18.83;;;26.00;99.90;;;;;;5067881;28;20278;-42
2022/05/20 10:34:35;;;;;;;23.73;18.70;;;26.40;99.90;;;;;;5075106;28;20236;-40
2022/05/20 10:37:15;;;;;;;23.10;18.27;;;26.60;99.90;;;;;;5075627;28;20585;-40
2022/05/20 10:40:12;;;;;;;22.33;18.30;;;26.70;99.90;;;;;;5075957;28;20581;-40
2022/05/20 10:43:04;;;;;;;23.43;18.27;;;26.70;99.90;;;;;;5046732;28;20270;-41
2022/05/20 10:48:56;;;;;;;24.93;17.90;;;26.70;99.90;;;;;;5075402;28;20230;-40
2022/05/20 10:51:48;;;;;;;23.27;18.13;;;26.80;99.90;;;;;;5024507;28;20702;-42
2022/05/20 10:54:35;;;;;;;24.02;18.80;;;26.90;99.90;;;;;;5075445;28;20168;-41
2022/05/20 10:57:13;;;;;;;21.17;17.83;;;26.90;99.90;;;;;;5075316;28;20220;-38
2022/05/20 10:59:57;;;;;;;20.95;18.67;;;27.00;99.90;;;;;;5057053;28;20199;-39
2022/05/20 11:02:51;;;;;;;25.17;19.05;;;27.20;99.90;;;;;;5075390;28;20175;-40
2022/05/20 11:05:54;;;;;;;20.17;18.00;;;27.30;99.90;;;;;;5074572;28;20557;-42
2022/05/20 11:08:58;;;;;;;22.20;19.45;;;27.40;99.90;;;;;;5074936;28;20629;-41
2022/05/20 11:12:02;;;;;;;22.55;17.92;;;27.50;99.90;;;;;;5039640;28;20789;-42
2022/05/20 11:14:46;;;;;;;18.63;15.93;;;27.50;99.90;;;;;;5074816;28;20187;-42
2022/05/20 11:17:33;;;;;;;22.85;18.27;;;27.50;99.90;;;;;;5075143;28;20769;-38
2022/05/20 11:20:04;;;;;;;22.25;17.88;;;27.50;99.90;;;;;;5068622;28;20697;-39
2022/05/20 11:22:41;;;;;;;22.77;16.52;;;27.60;99.90;;;;;;5074521;28;20546;-41
2022/05/20 11:25:43;;;;;;;22.05;18.63;;;27.70;99.90;;;;;;5074692;28;20160;-42
2022/05/20 11:28:20;;;;;;;20.55;17.92;;;27.80;99.90;;;;;;5074376;28;20236;-40
2022/05/20 11:31:09;;;;;;;20.55;17.58;;;27.90;99.90;;;;;;5074450;28;20187;-41
2022/05/20 11:33:54;;;;;;;19.77;16.17;;;27.80;99.90;;;;;;5074737;28;20238;-42
2022/05/20 11:36:41;;;;;;;17.90;15.40;;;27.80;99.90;;;;;;5074289;28;20152;-42
2022/05/20 11:39:49;;;;;;;16.65;14.65;;;27.80;99.90;;;;;;5074111;28;20290;-42
2022/05/20 11:42:36;;;;;;;19.52;13.65;;;27.80;99.90;;;;;;5074388;28;20203;-40
2022/05/20 11:45:23;;;;;;;20.88;14.88;;;27.90;99.90;;;;;;5074699;28;20160;-41
2022/05/20 11:48:20;;;;;;;17.70;13.23;;;27.90;99.90;;;;;;5074005;28;20192;-42
2022/05/20 11:50:55;;;;;;;15.60;11.13;;;28.00;99.90;;;;;;5056787;28;20196;-42
2022/05/20 11:53:55;;;;;;;18.63;14.40;;;28.00;99.90;;;;;;5074807;28;20170;-42
2022/05/20 11:56:28;;;;;;;17.10;13.93;;;27.80;99.90;;;;;;5073862;28;20198;-42
2022/05/20 11:59:06;;;;;;;16.52;12.90;;;27.70;99.90;;;;;;5073957;28;20211;-40
2022/05/20 12:01:34;;;;;;;15.30;11.82;;;27.60;99.90;;;;;;5074032;28;20267;-42
2022/05/20 12:04:07;;;;;;;13.63;12.18;;;27.40;99.90;;;;;;5073920;28;20167;-41
2022/05/20 12:06:39;;;;;;;13.60;11.07;;;27.30;99.90;;;;;;5074530;28;20192;-43
2022/05/20 12:09:25;;;;;;;15.52;10.57;;;27.00;99.90;;;;;;5074218;28;20198;-41
2022/05/20 12:12:09;;;;;;;18.92;11.45;;;26.80;99.90;;;;;;5058400;28;20164;-46
2022/05/20 12:14:53;;;;;;;13.40;11.27;;;26.50;99.90;;;;;;5076037;28;20175;-47
2022/05/20 12:17:34;;;;;;;14.27;10.75;;;26.30;99.90;;;;;;5074609;28;20215;-47
2022/05/20 12:24:12;;;;;;;12.82;10.23;;;25.90;99.90;;;;;;5076158;28;20159;-46
2022/05/20 12:26:07;;;;;;;13.30;10.70;;;25.70;99.90;;;;;;5073650;28;20191;-46
2022/05/20 12:28:36;;;;;;;12.52;10.32;;;25.60;99.90;;;;;;5074146;28;20192;-46
2022/05/20 12:31:13;;;;;;;18.37;11.00;;;25.50;99.90;;;;;;5074504;28;20190;-46
2022/05/20 12:33:52;;;;;;;16.40;10.67;;;25.40;99.90;;;;;;5074722;28;20174;-46
2022/05/20 12:36:42;;;;;;;16.53;11.30;;;25.20;99.90;;;;;;5073389;28;20179;-46
2022/05/20 12:39:07;;;;;;;13.63;11.70;;;25.00;99.90;;;;;;5074034;28;20235;-46
2022/05/20 12:42:00;;;;;;;12.03;10.47;;;24.70;99.90;;;;;;5056377;28;20264;-46
2022/05/20 12:44:35;;;;;;;18.60;11.27;;;24.40;99.90;;;;;;5073545;28;20164;-46
2022/05/20 12:47:13;;;;;;;17.93;11.57;;;24.20;99.90;;;;;;5073445;28;20239;-47
2022/05/20 12:49:48;;;;;;;22.33;12.63;;;23.80;99.90;;;;;;5073258;28;20203;-46
2022/05/20 12:52:19;;;;;;;14.53;11.20;;;23.50;99.90;;;;;;5073038;28;20175;-46
2022/05/20 12:54:52;;;;;;;14.13;8.43;;;23.00;99.90;;;;;;5073158;28;20176;-47
2022/05/20 12:57:31;;;;;;;9.67;7.43;;;22.30;99.90;;;;;;5073042;28;20277;-46
2022/05/20 13:00:07;;;;;;;11.13;7.70;;;21.50;99.90;;;;;;5074588;28;20187;-46
2022/05/20 13:02:40;;;;;;;11.57;7.13;;;21.30;99.90;;;;;;5074400;28;20260;-47
2022/05/20 13:05:17;;;;;;;6.33;5.73;;;21.10;99.90;;;;;;5074410;28;20164;-46
2022/05/20 13:07:44;;;;;;;7.77;4.80;;;21.00;99.90;;;;;;5074589;28;20191;-46
2022/05/20 13:10:32;;;;;;;8.20;5.20;;;21.00;99.90;;;;;;5074178;28;20167;-45
2022/05/20 13:13:10;;;;;;;6.93;5.70;;;20.90;99.90;;;;;;5074498;28;20624;-46
2022/05/20 13:15:45;;;;;;;6.43;5.10;;;20.90;99.90;;;;;;5074835;28;20274;-47
2022/05/20 13:18:19;;;;;;;7.43;4.83;;;21.00;99.90;;;;;;5074606;28;20214;-46
2022/05/20 13:20:46;;;;;;;4.97;3.97;;;21.10;99.90;;;;;;5075525;28;20214;-45
2022/05/20 13:23:28;;;;;;;5.93;4.30;;;21.30;99.90;;;;;;5075275;28;20525;-46
2022/05/20 13:25:54;;;;;;;5.20;3.27;;;21.60;99.90;;;;;;5075739;28;20171;-46
2022/05/20 13:28:35;;;;;;;4.80;3.10;;;21.90;99.90;;;;;;5077586;28;20192;-45
2022/05/20 13:31:06;;;;;;;3.70;3.20;;;22.10;99.90;;;;;;5079750;28;20217;-45